createdAt,value
2017-08-12T00:02:07.646Z,10.90
2017-08-12T00:04:35.769Z,9.93
2017-08-12T00:07:04.192Z,9.43
2017-08-12T00:09:33.459Z,9.70
2017-08-12T00:12:01.588Z,9.50
2017-08-12T00:14:33.040Z,9.63
2017-08-12T00:17:01.173Z,11.43
2017-08-12T00:19:32.411Z,9.97
2017-08-12T00:22:01.592Z,11.10
2017-08-12T00:24:29.755Z,9.60
2017-08-12T00:26:58.072Z,10.37
2017-08-12T00:29:26.221Z,10.67
2017-08-12T00:31:54.344Z,10.07
2017-08-12T00:34:22.471Z,11.13
2017-08-12T00:36:51.880Z,11.40
2017-08-12T00:39:20.048Z,10.63
2017-08-12T00:41:52.042Z,13.17
2017-08-12T00:44:20.207Z,12.90
2017-08-12T00:46:52.869Z,12.47
2017-08-12T00:49:31.081Z,12.23
2017-08-12T00:51:59.236Z,11.70
2017-08-12T00:54:28.478Z,11.80
2017-08-12T00:56:59.617Z,11.40
2017-08-12T00:59:41.614Z,11.23
2017-08-12T01:02:12.840Z,10.60
2017-08-12T01:04:47.085Z,10.77
2017-08-12T01:07:35.163Z,11.83
2017-08-12T01:10:07.692Z,11.97
2017-08-12T01:12:56.476Z,12.37
2017-08-12T01:15:34.836Z,12.77
2017-08-12T01:18:06.824Z,12.73
2017-08-12T01:20:45.039Z,13.17
2017-08-12T01:23:17.068Z,11.73
2017-08-12T01:25:45.203Z,11.70
2017-08-12T01:28:18.993Z,13.43
2017-08-12T01:30:56.950Z,13.10
2017-08-12T01:33:29.236Z,12.20
2017-08-12T01:35:57.427Z,12.83
2017-08-12T01:38:26.520Z,12.33
2017-08-12T01:40:55.705Z,12.20
2017-08-12T01:43:25.800Z,10.77
2017-08-12T01:45:55.834Z,12.27
2017-08-12T01:48:30.053Z,12.77
2017-08-12T01:51:08.755Z,11.50
2017-08-12T01:53:40.655Z,12.07
2017-08-12T01:56:15.951Z,12.17
2017-08-12T01:58:44.068Z,11.33
2017-08-12T02:01:17.708Z,11.00
2017-08-12T02:03:45.887Z,11.83
2017-08-12T02:06:23.920Z,12.33
2017-08-12T02:08:58.681Z,11.17
2017-08-12T02:11:30.409Z,10.10
2017-08-12T02:13:58.802Z,10.37
2017-08-12T02:16:27.214Z,10.90
2017-08-12T02:18:55.353Z,10.80
2017-08-12T02:21:24.588Z,10.70
2017-08-12T02:23:59.594Z,10.37
2017-08-12T02:26:30.996Z,10.00
2017-08-12T02:29:00.418Z,9.97
2017-08-12T02:31:28.562Z,8.40
2017-08-12T02:34:02.614Z,8.10
2017-08-12T02:36:30.779Z,8.70
2017-08-12T02:39:02.245Z,8.40
2017-08-12T02:41:40.549Z,8.10
2017-08-12T02:44:12.742Z,8.50
2017-08-12T02:46:42.012Z,8.67
2017-08-12T02:49:16.448Z,9.20
2017-08-12T02:51:44.843Z,8.10
2017-08-12T02:54:16.263Z,8.73
2017-08-12T02:56:45.470Z,7.50
2017-08-12T02:59:15.507Z,8.00
2017-08-12T03:01:46.013Z,9.33
2017-08-12T03:04:25.796Z,8.43
2017-08-12T03:06:56.087Z,7.70
2017-08-12T03:09:24.301Z,8.43
2017-08-12T03:11:53.596Z,7.57
2017-08-12T03:14:21.880Z,8.33
2017-08-12T03:16:50.405Z,7.90
2017-08-12T03:19:18.817Z,7.63
2017-08-12T03:21:59.125Z,7.33
2017-08-12T03:24:28.201Z,7.17
2017-08-12T03:27:06.548Z,7.50
2017-08-12T03:29:35.692Z,8.00
2017-08-12T03:32:13.913Z,6.77
2017-08-12T03:34:43.060Z,7.20
2017-08-12T03:37:15.830Z,7.90
2017-08-12T03:39:47.215Z,7.07
2017-08-12T03:42:21.652Z,6.80
2017-08-12T03:44:50.727Z,5.83
2017-08-12T03:47:19.832Z,7.00
2017-08-12T03:49:48.016Z,7.20
2017-08-12T03:52:26.472Z,5.83
2017-08-12T03:55:05.188Z,5.60
2017-08-12T03:57:43.823Z,5.97
2017-08-12T04:00:13.895Z,6.57
2017-08-12T04:02:59.000Z,7.13
2017-08-12T04:05:27.130Z,6.50
2017-08-12T04:08:01.427Z,7.43
2017-08-12T04:10:29.518Z,6.33
2017-08-12T04:13:09.727Z,6.73
2017-08-12T04:15:37.923Z,6.77
2017-08-12T04:18:15.871Z,7.30
2017-08-12T04:20:44.336Z,7.27
2017-08-12T04:23:24.894Z,6.70
2017-08-12T04:25:56.207Z,7.00
2017-08-12T04:28:24.312Z,6.83
2017-08-12T04:30:55.565Z,6.97
2017-08-12T04:33:36.664Z,7.10
2017-08-12T04:36:12.861Z,7.33
2017-08-12T04:38:42.237Z,7.50
2017-08-12T04:41:20.044Z,7.77
2017-08-12T04:43:52.271Z,6.93
2017-08-12T04:46:30.420Z,8.00
2017-08-12T04:48:59.656Z,6.93
2017-08-12T04:51:27.860Z,7.90
2017-08-12T04:53:55.976Z,7.33
2017-08-12T04:56:34.245Z,8.00
2017-08-12T04:59:10.293Z,8.13
2017-08-12T05:01:44.928Z,8.33
2017-08-12T05:04:13.013Z,8.90
2017-08-12T05:06:50.053Z,9.77
2017-08-12T05:09:22.135Z,9.83
2017-08-12T05:12:00.769Z,8.93
2017-08-12T05:14:40.315Z,9.30
2017-08-12T05:17:24.715Z,10.67
2017-08-12T05:19:53.239Z,9.50
2017-08-12T05:22:21.342Z,9.93
2017-08-12T05:24:53.384Z,10.40
2017-08-12T05:27:21.728Z,9.80
2017-08-12T05:29:49.891Z,9.40
2017-08-12T05:32:18.940Z,10.27
2017-08-12T05:34:51.476Z,10.07
2017-08-12T05:37:19.663Z,9.87
2017-08-12T05:39:53.558Z,9.23
2017-08-12T05:42:22.581Z,10.03
2017-08-12T05:44:50.952Z,8.90
2017-08-12T05:47:26.408Z,8.60
2017-08-12T05:49:58.493Z,8.33
2017-08-12T05:52:29.493Z,9.20
2017-08-12T05:55:01.092Z,8.90
2017-08-12T05:57:39.258Z,7.93
2017-08-12T06:00:13.084Z,9.23
2017-08-12T06:02:44.957Z,8.43
2017-08-12T06:05:26.527Z,9.23
2017-08-12T06:07:58.472Z,9.27
2017-08-12T06:10:26.600Z,8.43
2017-08-12T06:12:54.727Z,9.57
2017-08-12T06:15:31.652Z,10.53
2017-08-12T06:18:01.178Z,10.70
2017-08-12T06:20:33.314Z,9.63
2017-08-12T06:23:04.799Z,10.57
2017-08-12T06:25:36.065Z,11.70
2017-08-12T06:28:14.447Z,11.60
2017-08-12T06:30:50.068Z,11.50
2017-08-12T06:33:24.606Z,10.97
2017-08-12T06:36:00.339Z,11.90
2017-08-12T06:38:28.935Z,11.77
2017-08-12T06:41:00.905Z,12.20
2017-08-12T06:43:29.109Z,12.27
2017-08-12T06:45:57.445Z,12.30
2017-08-12T06:48:25.599Z,13.77
2017-08-12T06:50:54.670Z,13.20
2017-08-12T06:53:25.956Z,11.83
2017-08-12T06:55:58.627Z,12.40
2017-08-12T06:58:27.913Z,13.67
2017-08-12T07:00:59.082Z,13.33
2017-08-12T07:03:34.382Z,12.73
2017-08-12T07:06:15.870Z,13.83
2017-08-12T07:08:48.167Z,13.73
2017-08-12T07:11:26.630Z,12.80
2017-08-12T07:14:02.932Z,13.03
2017-08-12T07:16:41.477Z,13.23
2017-08-12T07:19:10.375Z,13.90
2017-08-12T07:21:52.161Z,14.07
2017-08-12T07:24:21.256Z,13.57
2017-08-12T07:26:51.344Z,15.00
2017-08-12T07:29:29.916Z,14.47
2017-08-12T07:31:59.340Z,14.67
2017-08-12T07:37:06.920Z,14.30
2017-08-12T07:39:36.948Z,14.17
2017-08-12T07:42:09.628Z,14.87
2017-08-12T07:44:51.545Z,16.87
2017-08-12T07:47:19.763Z,13.97
2017-08-12T07:49:49.822Z,12.93
2017-08-12T07:52:22.904Z,14.80
2017-08-12T07:55:02.861Z,13.47
2017-08-12T07:57:31.447Z,13.93
2017-08-12T08:00:00.956Z,12.70
2017-08-12T08:02:35.761Z,13.00
2017-08-12T08:05:04.928Z,13.00
2017-08-12T08:07:34.059Z,12.00
2017-08-12T08:10:04.606Z,12.50
2017-08-12T08:12:36.362Z,12.50
2017-08-12T08:15:07.039Z,12.50
2017-08-12T08:17:39.818Z,13.10
2017-08-12T08:20:13.824Z,13.50
2017-08-12T08:22:44.422Z,13.90
2017-08-12T08:25:12.888Z,14.53
2017-08-12T08:27:44.876Z,16.23
2017-08-12T08:30:13.180Z,14.60
2017-08-12T08:32:47.494Z,13.87
2017-08-12T08:35:17.453Z,12.93
2017-08-12T08:37:46.027Z,13.57
2017-08-12T08:40:16.406Z,12.70
2017-08-12T08:42:49.210Z,12.27
2017-08-12T08:45:17.541Z,12.30
2017-08-12T08:47:53.172Z,11.47
2017-08-12T08:50:22.155Z,11.60
2017-08-12T08:52:50.320Z,12.00
2017-08-12T08:55:19.249Z,11.93
2017-08-12T08:57:57.874Z,12.10
2017-08-12T09:00:26.105Z,11.77
2017-08-12T09:02:54.277Z,11.20
2017-08-12T09:05:23.344Z,10.70
2017-08-12T09:08:01.540Z,10.97
2017-08-12T09:10:31.776Z,10.87
2017-08-12T09:13:05.397Z,11.30
2017-08-12T09:15:38.647Z,9.90
2017-08-12T09:18:07.714Z,10.57
2017-08-12T09:20:39.869Z,9.40
2017-08-12T09:23:12.731Z,9.70
2017-08-12T09:25:44.212Z,9.87
2017-08-12T09:28:12.644Z,8.40
2017-08-12T09:30:47.212Z,9.03
2017-08-12T09:33:15.410Z,7.80
2017-08-12T09:35:50.840Z,8.50
2017-08-12T09:38:25.523Z,9.87
2017-08-12T09:40:55.460Z,9.83
2017-08-12T09:43:33.448Z,9.43
2017-08-12T09:46:06.325Z,10.27
2017-08-12T09:48:36.456Z,10.17
2017-08-12T09:51:05.534Z,10.33
2017-08-12T09:53:39.689Z,11.67
2017-08-12T09:56:08.077Z,11.93
2017-08-12T09:58:48.619Z,11.67
2017-08-12T10:01:16.852Z,12.57
2017-08-12T10:03:51.064Z,12.23
2017-08-12T10:06:22.964Z,12.30
2017-08-12T10:08:52.126Z,12.70
2017-08-12T10:11:20.253Z,12.97
2017-08-12T10:13:51.460Z,12.63
2017-08-12T10:16:29.874Z,11.93
2017-08-12T10:19:04.483Z,13.17
2017-08-12T10:21:35.562Z,11.97
2017-08-12T10:24:12.132Z,13.03
2017-08-12T10:26:40.448Z,13.30
2017-08-12T10:29:11.711Z,12.63
2017-08-12T10:31:39.873Z,12.50
2017-08-12T10:34:11.094Z,12.80
2017-08-12T10:36:46.295Z,12.80
2017-08-12T10:39:18.333Z,12.23
2017-08-12T10:41:51.974Z,12.70
2017-08-12T10:44:21.345Z,12.70
2017-08-12T10:46:49.574Z,12.47
2017-08-12T10:49:24.056Z,10.90
2017-08-12T10:51:55.957Z,10.60
2017-08-12T10:54:27.301Z,11.80
2017-08-12T10:56:57.723Z,12.23
2017-08-12T10:59:27.992Z,10.77
2017-08-12T11:02:00.952Z,11.37
2017-08-12T11:04:33.949Z,11.23
2017-08-12T11:07:12.181Z,10.73
2017-08-12T11:09:46.104Z,10.20
2017-08-12T11:12:25.425Z,9.20
2017-08-12T11:14:59.432Z,9.17
2017-08-12T11:17:35.751Z,10.87
2017-08-12T11:20:14.285Z,9.67
2017-08-12T11:22:50.874Z,10.47
2017-08-12T11:25:22.003Z,9.67
2017-08-12T11:27:56.316Z,9.03
2017-08-12T11:30:25.395Z,9.10
2017-08-12T11:32:53.566Z,10.23
2017-08-12T11:35:21.871Z,8.30
2017-08-12T11:37:50.067Z,10.00
2017-08-12T11:40:18.282Z,8.67
2017-08-12T11:42:46.698Z,9.30
2017-08-12T11:45:18.483Z,8.83
2017-08-12T11:47:57.673Z,9.80
2017-08-12T11:50:26.784Z,8.57
2017-08-12T11:52:58.302Z,9.20
2017-08-12T11:55:26.523Z,9.40
2017-08-12T11:58:01.889Z,8.30
2017-08-12T12:00:33.477Z,8.30
2017-08-12T12:03:01.871Z,7.97
2017-08-12T12:05:42.834Z,9.43
2017-08-12T12:08:28.000Z,8.23
2017-08-12T12:11:08.442Z,8.53
2017-08-12T12:13:53.948Z,8.67
2017-08-12T12:16:45.916Z,8.90
2017-08-12T12:19:14.829Z,9.00
2017-08-12T12:21:46.091Z,8.67
2017-08-12T12:24:17.788Z,9.00
2017-08-12T12:26:45.927Z,7.83
2017-08-12T12:29:31.401Z,6.87
2017-08-12T12:32:05.419Z,8.77
2017-08-12T12:34:35.695Z,7.13
2017-08-12T12:37:05.032Z,7.67
2017-08-12T12:39:39.146Z,6.77
2017-08-12T12:42:11.669Z,6.97
2017-08-12T12:44:39.864Z,7.23
2017-08-12T12:47:11.008Z,7.93
2017-08-12T12:49:41.084Z,6.53
2017-08-12T12:52:12.176Z,6.90
2017-08-12T12:54:40.379Z,6.93
2017-08-12T12:57:15.269Z,5.77
2017-08-12T12:59:43.421Z,5.60
2017-08-12T13:02:11.581Z,5.43
2017-08-12T13:04:39.988Z,5.60
2017-08-12T13:07:12.021Z,4.97
2017-08-12T13:09:40.157Z,5.60
2017-08-12T13:12:21.026Z,5.23
2017-08-12T13:14:56.007Z,5.30
2017-08-12T13:17:31.780Z,5.97
2017-08-12T13:20:01.834Z,5.00
2017-08-12T13:22:40.319Z,5.17
2017-08-12T13:25:12.028Z,4.90
2017-08-12T13:27:41.097Z,4.33
2017-08-12T13:30:09.250Z,3.93
2017-08-12T13:32:43.599Z,4.10
2017-08-12T13:35:11.752Z,4.63
2017-08-12T13:37:48.071Z,4.07
2017-08-12T13:40:26.484Z,4.30
2017-08-12T13:42:54.643Z,4.20
2017-08-12T13:45:22.885Z,4.37
2017-08-12T13:47:54.899Z,4.20
2017-08-12T13:50:33.256Z,4.60
2017-08-12T13:53:03.280Z,4.83
2017-08-12T13:55:46.333Z,4.47
2017-08-12T13:58:14.445Z,4.40
2017-08-12T14:00:42.569Z,4.50
2017-08-12T14:03:10.725Z,4.47
2017-08-12T14:05:38.879Z,4.17
2017-08-12T14:08:07.029Z,4.67
2017-08-12T14:10:35.233Z,4.67
2017-08-12T14:13:03.347Z,4.20
2017-08-12T14:15:31.506Z,4.20
2017-08-12T14:17:59.682Z,5.10
2017-08-12T14:20:27.809Z,4.67
2017-08-12T14:22:55.944Z,4.93
2017-08-12T14:25:24.050Z,5.77
2017-08-12T14:27:52.148Z,4.50
2017-08-12T14:30:20.237Z,5.00
2017-08-12T14:32:48.347Z,4.20
2017-08-12T14:35:16.441Z,4.20
2017-08-12T14:37:46.640Z,4.80
2017-08-12T14:40:14.719Z,4.67
2017-08-12T14:42:43.075Z,5.43
2017-08-12T14:45:16.945Z,4.30
2017-08-12T14:47:45.037Z,4.40
2017-08-12T14:50:13.156Z,4.80
2017-08-12T14:52:49.625Z,5.50
2017-08-12T14:55:43.768Z,6.20
2017-08-12T14:58:14.089Z,4.27
2017-08-12T15:00:43.355Z,4.50
2017-08-12T15:03:14.953Z,4.20
2017-08-12T15:05:49.146Z,3.13
2017-08-12T15:08:24.984Z,3.97
2017-08-12T15:10:59.294Z,3.53
2017-08-12T15:13:30.372Z,3.13
2017-08-12T15:16:04.799Z,3.20
2017-08-12T15:18:34.738Z,3.40
2017-08-12T15:21:08.772Z,3.53
2017-08-12T15:23:37.043Z,3.70
2017-08-12T15:26:06.201Z,3.50
2017-08-12T15:28:36.065Z,3.37
2017-08-12T15:31:09.382Z,3.70
2017-08-12T15:33:38.449Z,4.00
2017-08-12T15:36:06.548Z,4.10
2017-08-12T15:38:57.796Z,4.23
2017-08-12T15:41:27.106Z,3.87
2017-08-12T15:44:08.748Z,3.80
2017-08-12T15:46:38.211Z,4.77
2017-08-12T15:49:08.262Z,4.40
2017-08-12T15:51:37.602Z,4.83
2017-08-12T15:54:12.344Z,5.30
2017-08-12T15:56:43.752Z,5.43
2017-08-12T15:59:12.319Z,4.60
2017-08-12T16:01:41.673Z,5.40
2017-08-12T16:04:22.599Z,6.73
2017-08-12T16:06:54.808Z,6.37
2017-08-12T16:09:24.831Z,6.17
2017-08-12T16:11:54.409Z,5.57
2017-08-12T16:14:22.879Z,6.47
2017-08-12T16:17:00.977Z,5.50
2017-08-12T16:19:38.918Z,7.00
2017-08-12T16:22:18.092Z,5.50
2017-08-12T16:24:47.191Z,6.63
2017-08-12T16:27:20.741Z,6.73
2017-08-12T16:29:50.753Z,5.93
2017-08-12T16:32:25.508Z,6.23
2017-08-12T16:34:59.257Z,5.70
2017-08-12T16:37:33.226Z,6.80
2017-08-12T16:40:02.064Z,8.30
2017-08-12T16:42:32.652Z,7.57
2017-08-12T16:45:12.256Z,7.70
2017-08-12T16:47:41.586Z,9.50
2017-08-12T16:50:12.084Z,8.17
2017-08-12T16:52:46.381Z,9.40
2017-08-12T16:55:14.867Z,9.43
2017-08-12T16:57:50.846Z,8.97
2017-08-12T17:00:19.021Z,8.97
2017-08-12T17:02:52.364Z,9.17
2017-08-12T17:05:26.665Z,9.80
2017-08-12T17:08:00.166Z,10.37
2017-08-12T17:10:42.104Z,9.93
2017-08-12T17:13:13.344Z,10.53
2017-08-12T17:15:46.625Z,11.57
2017-08-12T17:18:14.853Z,11.47
2017-08-12T17:20:45.119Z,11.80
2017-08-12T17:23:14.075Z,12.17
2017-08-12T17:25:42.409Z,12.20
2017-08-12T17:28:11.497Z,11.33
2017-08-12T17:30:46.441Z,11.33
2017-08-12T17:33:15.965Z,11.07
2017-08-12T17:35:47.395Z,10.67
2017-08-12T17:38:17.166Z,10.77
2017-08-12T17:40:46.849Z,11.87
2017-08-12T17:43:16.433Z,11.80
2017-08-12T17:45:48.067Z,10.43
2017-08-12T17:48:19.585Z,10.33
2017-08-12T17:50:49.885Z,9.73
2017-08-12T17:53:19.186Z,9.97
2017-08-12T17:55:47.421Z,10.40
2017-08-12T17:58:20.232Z,10.40
2017-08-12T18:00:56.260Z,9.90
2017-08-12T18:03:28.691Z,9.50
2017-08-12T18:06:04.788Z,9.87
2017-08-12T18:08:32.982Z,10.93
2017-08-12T18:11:05.337Z,10.53
2017-08-12T18:13:35.460Z,11.30
2017-08-12T18:16:05.549Z,10.30
2017-08-12T18:18:35.575Z,9.50
2017-08-12T18:21:09.497Z,8.87
2017-08-12T18:23:37.705Z,9.60
2017-08-12T18:26:05.924Z,8.47
2017-08-12T18:28:35.222Z,9.60
2017-08-12T18:31:14.311Z,9.67
2017-08-12T18:33:43.264Z,8.90
2017-08-12T18:36:13.488Z,9.30
2017-08-12T18:38:45.189Z,9.40
2017-08-12T18:41:17.910Z,9.77
2017-08-12T18:43:47.097Z,9.40
2017-08-12T18:46:26.804Z,9.40
2017-08-12T18:48:56.034Z,9.20
2017-08-12T18:51:37.595Z,8.83
2017-08-12T18:54:06.673Z,9.43
2017-08-12T18:56:43.251Z,9.60
2017-08-12T18:59:16.083Z,8.10
2017-08-12T19:01:49.702Z,10.70
2017-08-12T19:04:22.113Z,7.37
2017-08-12T19:06:55.136Z,8.80
2017-08-12T19:09:24.258Z,8.50
2017-08-12T19:11:52.906Z,8.37
2017-08-12T19:14:24.053Z,9.00
2017-08-12T19:17:05.887Z,8.57
2017-08-12T19:19:35.962Z,9.83
2017-08-12T19:22:07.751Z,9.57
2017-08-12T19:24:35.997Z,10.00
2017-08-12T19:27:07.692Z,8.83
2017-08-12T19:29:37.035Z,6.77
2017-08-12T19:32:06.975Z,8.20
2017-08-12T19:34:47.317Z,7.70
2017-08-12T19:37:21.402Z,6.80
2017-08-12T19:39:49.770Z,8.70
2017-08-12T19:42:23.801Z,8.20
2017-08-12T19:44:56.288Z,9.23
2017-08-12T19:47:26.406Z,7.90
2017-08-12T19:49:54.982Z,7.70
2017-08-12T19:52:23.169Z,7.50
2017-08-12T19:54:51.291Z,6.43
2017-08-12T19:57:22.489Z,5.90
2017-08-12T19:59:57.960Z,6.07
2017-08-12T20:02:26.165Z,5.77
2017-08-12T20:04:55.429Z,4.60
2017-08-12T20:07:27.401Z,4.87
2017-08-12T20:09:56.607Z,5.00
2017-08-12T20:12:25.606Z,4.20
2017-08-12T20:14:56.923Z,5.30
2017-08-12T20:17:27.452Z,4.60
2017-08-12T20:19:55.656Z,5.30
2017-08-12T20:22:25.025Z,5.30
2017-08-12T20:24:55.659Z,6.17
2017-08-12T20:27:25.033Z,5.30
2017-08-12T20:29:55.331Z,5.43
2017-08-12T20:32:29.871Z,5.53
2017-08-12T20:35:00.075Z,5.20
2017-08-12T20:37:33.424Z,6.00
2017-08-12T20:40:02.662Z,5.57
2017-08-12T20:42:32.714Z,5.83
2017-08-12T20:45:01.049Z,6.33
2017-08-12T20:47:32.152Z,6.03
2017-08-12T20:50:10.442Z,5.30
2017-08-12T20:52:48.764Z,5.07
2017-08-12T20:55:16.991Z,5.07
2017-08-12T20:57:47.311Z,4.83
2017-08-12T21:00:22.543Z,5.00
2017-08-12T21:02:51.639Z,5.20
2017-08-12T21:05:25.053Z,4.30
2017-08-12T21:07:55.149Z,3.77
2017-08-12T21:10:23.299Z,4.13
2017-08-12T21:12:53.405Z,3.87
2017-08-12T21:15:23.662Z,3.80
2017-08-12T21:17:52.040Z,4.17
2017-08-12T21:20:20.593Z,3.87
2017-08-12T21:22:48.805Z,3.90
2017-08-12T21:25:20.771Z,4.03
2017-08-12T21:27:52.684Z,3.50
2017-08-12T21:30:24.133Z,4.10
2017-08-12T21:32:52.745Z,3.20
2017-08-12T21:35:26.389Z,4.50
2017-08-12T21:38:00.036Z,4.03
2017-08-12T21:40:36.349Z,3.50
2017-08-12T21:43:11.979Z,3.80
2017-08-12T21:45:44.907Z,3.30
2017-08-12T21:48:15.035Z,2.53
2017-08-12T21:50:49.721Z,4.30
2017-08-12T21:53:22.268Z,4.17
2017-08-12T21:55:50.699Z,2.80
2017-08-12T21:58:20.946Z,3.30
2017-08-12T22:01:02.538Z,3.37
2017-08-12T22:03:30.861Z,3.47
2017-08-12T22:06:02.734Z,2.90
2017-08-12T22:08:30.998Z,3.40
2017-08-12T22:11:00.156Z,3.20
2017-08-12T22:13:28.498Z,3.60
2017-08-12T22:15:56.772Z,2.87
2017-08-12T22:18:25.332Z,3.20
2017-08-12T22:20:57.238Z,2.90
2017-08-12T22:23:30.754Z,3.87
2017-08-12T22:26:01.021Z,3.33
2017-08-12T22:28:36.772Z,3.30
2017-08-12T22:31:10.008Z,3.20
2017-08-12T22:33:43.182Z,3.67
2017-08-12T22:36:11.815Z,3.33
2017-08-12T22:38:44.291Z,3.30
2017-08-12T22:41:26.919Z,3.27
2017-08-12T22:44:04.332Z,3.90
2017-08-12T22:49:10.522Z,4.83
2017-08-12T22:51:42.278Z,3.90
2017-08-12T22:54:15.713Z,3.03
2017-08-12T22:56:48.613Z,3.57
2017-08-12T23:02:27.328Z,3.57
2017-08-12T23:15:48.832Z,4.13
2017-08-12T23:26:24.941Z,3.57
2017-08-12T23:34:24.583Z,3.87
2017-08-12T23:37:02.010Z,4.60
2017-08-12T23:42:09.025Z,4.20
2017-08-12T23:44:43.089Z,3.47
2017-08-12T23:47:15.749Z,3.80
2017-08-12T23:49:50.518Z,4.60
2017-08-12T23:52:20.621Z,4.23
2017-08-12T23:54:53.605Z,4.53
2017-08-12T23:57:29.164Z,4.73
